CYBB/YBB METAR and TAF weather

Enter ICAO airport designator
Station Type Date Time Source
CYBB METAR 2021/10/19 23:00 UTC NOAA

CYBB 192300Z 27012KT 15SM BKN020 OVC035 M01/M03 A3017 RMK SC5SC3 0.0/LAST STFD OBS/NXT 201200Z SLP218


Station Type Date Time Source
CYBB Decoded METAR 2021/10/19 23:00 UTC NOAA

Pelly Bay Airport, Canada (CYBB) 68-32N 089-49W
Oct 19, 2021 - 07:00 PM EDT / 2021.10.19 2300 UTC
Wind: from the W (270 degrees) at 14 MPH (12 KT):0
Visibility: 15 mile(s):0
Sky conditions: overcast
Temperature: 30 F (-1 C)
Windchill: 19 F (-7 C):1
Dew Point: 26 F (-3 C)
Relative Humidity: 86%
Pressure (altimeter): 30.17 in. Hg (1021 hPa)
ob: CYBB 192300Z 27012KT 15SM BKN020 OVC035 M01/M03 A3017 RMK SC5SC3 0.0/LAST STFD OBS/NXT 201200Z SLP218
cycle: 23

Station Type Date Time Source
CYBB TAF 2021/10/19 19:00 UTC NOAA

TAF CYBB 191838Z 1919/1923 26015G25KT P6SM SCT015 BKN030
TEMPO 1919/1923 5SM -SN BKN015 OVC030
RMK NXT FCST WILL BE ISSUED AT 201345Z

Example: see airport list